createdAt,value
2023-04-29T00:00:50.363Z,7.25
2023-04-29T00:03:17.158Z,7.63
2023-04-29T00:05:43.184Z,8.13
2023-04-29T00:08:09.121Z,8.75
2023-04-29T00:10:35.031Z,7.07
2023-04-29T00:13:00.846Z,7.07
2023-04-29T00:15:26.736Z,6.97
2023-04-29T00:17:52.528Z,6.82
2023-04-29T00:20:18.505Z,7.40
2023-04-29T00:22:44.527Z,8.25
2023-04-29T00:25:11.679Z,9.82
2023-04-29T00:27:38.782Z,8.00
2023-04-29T00:30:06.252Z,7.22
2023-04-29T00:32:32.063Z,7.55
2023-04-29T00:34:57.886Z,7.97
2023-04-29T00:37:23.677Z,8.55
2023-04-29T00:39:49.737Z,8.07
2023-04-29T00:42:15.951Z,9.10
2023-04-29T00:44:41.778Z,8.05
2023-04-29T00:47:10.818Z,8.75
2023-04-29T00:49:39.782Z,8.90
2023-04-29T00:52:07.521Z,8.85
2023-04-29T00:54:33.958Z,9.60
2023-04-29T00:57:01.012Z,9.65
2023-04-29T00:59:31.734Z,9.43
2023-04-29T01:02:00.912Z,10.55
2023-04-29T01:04:26.971Z,8.73
2023-04-29T01:07:13.108Z,10.00
2023-04-29T01:09:41.899Z,9.57
2023-04-29T01:12:13.141Z,10.13
2023-04-29T01:14:39.044Z,11.00
2023-04-29T01:17:15.063Z,10.77
2023-04-29T01:19:52.270Z,10.20
2023-04-29T01:22:19.496Z,10.07
2023-04-29T01:24:45.726Z,10.55
2023-04-29T01:27:18.551Z,9.95
2023-04-29T01:29:47.709Z,10.05
2023-04-29T01:32:17.318Z,10.80
2023-04-29T01:35:01.765Z,9.75
2023-04-29T01:37:50.626Z,11.02
2023-04-29T01:40:19.769Z,11.82
2023-04-29T01:42:47.792Z,10.60
2023-04-29T01:45:16.479Z,10.55
2023-04-29T01:47:42.561Z,10.10
2023-04-29T01:50:08.646Z,9.68
2023-04-29T01:52:34.441Z,10.20
2023-04-29T01:55:00.417Z,12.13
2023-04-29T01:57:26.228Z,13.55
2023-04-29T01:59:52.401Z,13.07
2023-04-29T02:02:20.818Z,13.35
2023-04-29T02:04:46.676Z,12.98
2023-04-29T02:07:12.475Z,12.85
2023-04-29T02:09:38.240Z,12.35
2023-04-29T02:12:04.447Z,14.02
2023-04-29T02:14:31.082Z,14.13
2023-04-29T02:16:56.831Z,11.35
2023-04-29T02:19:22.657Z,13.68
2023-04-29T02:21:48.403Z,14.35
2023-04-29T02:24:14.275Z,14.88
2023-04-29T02:26:40.453Z,13.98
2023-04-29T02:29:06.374Z,13.82
2023-04-29T02:31:32.669Z,14.60
2023-04-29T02:33:59.607Z,14.38
2023-04-29T02:36:25.989Z,14.05
2023-04-29T02:38:54.567Z,14.70
2023-04-29T02:41:20.441Z,15.10
2023-04-29T02:43:46.368Z,15.73
2023-04-29T02:46:12.365Z,15.73
2023-04-29T02:48:38.152Z,16.08
2023-04-29T02:51:03.928Z,16.48
2023-04-29T02:53:29.730Z,16.67
2023-04-29T02:55:56.526Z,14.65
2023-04-29T02:58:22.417Z,18.25
2023-04-29T03:00:48.262Z,16.95
2023-04-29T03:03:14.262Z,16.40
2023-04-29T03:05:40.225Z,17.17
2023-04-29T03:08:06.077Z,19.27
2023-04-29T03:10:31.890Z,18.48
2023-04-29T03:12:57.711Z,18.98
2023-04-29T03:15:23.487Z,18.60
2023-04-29T03:17:49.369Z,18.85
2023-04-29T03:20:15.272Z,18.63
2023-04-29T03:22:41.087Z,18.88
2023-04-29T03:25:07.272Z,19.60
2023-04-29T03:27:33.188Z,18.92
2023-04-29T03:29:59.456Z,18.10
2023-04-29T03:32:25.449Z,19.85
2023-04-29T03:34:51.357Z,20.27
2023-04-29T03:37:17.176Z,19.00
2023-04-29T03:39:42.990Z,20.75
2023-04-29T03:42:08.751Z,19.95
2023-04-29T03:44:34.631Z,20.55
2023-04-29T03:47:00.481Z,20.90
2023-04-29T03:49:26.570Z,20.92
2023-04-29T03:51:52.964Z,19.15
2023-04-29T03:54:18.823Z,18.38
2023-04-29T03:56:44.744Z,20.92
2023-04-29T03:59:10.626Z,22.50
2023-04-29T04:01:39.134Z,20.55
2023-04-29T04:04:06.754Z,19.98
2023-04-29T04:06:33.322Z,19.70
2023-04-29T04:09:02.132Z,20.50
2023-04-29T04:11:29.580Z,20.38
2023-04-29T04:13:56.093Z,21.05
2023-04-29T04:19:05.423Z,19.20
2023-04-29T04:21:32.657Z,19.60
2023-04-29T04:24:10.075Z,19.10
2023-04-29T04:26:37.480Z,19.70
2023-04-29T04:32:02.194Z,18.27
2023-04-29T04:34:28.739Z,20.23
2023-04-29T04:36:55.847Z,20.27
2023-04-29T04:39:26.950Z,20.65
2023-04-29T04:41:55.100Z,20.55
2023-04-29T04:44:21.584Z,22.13
2023-04-29T04:46:49.351Z,19.45
2023-04-29T04:49:17.435Z,20.92
2023-04-29T04:51:47.237Z,21.60
2023-04-29T04:54:15.790Z,20.48
2023-04-29T04:59:54.866Z,20.77
2023-04-29T05:05:05.836Z,22.40
2023-04-29T05:07:36.386Z,20.70
2023-04-29T05:10:07.600Z,20.80
2023-04-29T05:12:43.813Z,20.83
2023-04-29T05:20:34.816Z,20.15
2023-04-29T05:23:10.967Z,20.65
2023-04-29T05:25:37.879Z,19.00
2023-04-29T05:28:06.327Z,21.40
2023-04-29T05:34:08.080Z,19.55
2023-04-29T05:39:16.395Z,19.92
2023-04-29T05:41:45.902Z,20.55
2023-04-29T05:44:22.654Z,20.25
2023-04-29T05:46:49.239Z,18.13
2023-04-29T05:49:16.253Z,18.05
2023-04-29T05:51:45.394Z,17.65
2023-04-29T06:07:39.244Z,17.80
2023-04-29T06:10:10.238Z,18.27
2023-04-29T06:12:42.633Z,16.08
2023-04-29T06:15:17.790Z,17.10
2023-04-29T06:17:45.309Z,17.30
2023-04-29T06:22:59.330Z,17.05
2023-04-29T06:25:27.269Z,15.80
2023-04-29T06:31:01.186Z,15.48
2023-04-29T06:44:12.427Z,15.13
2023-04-29T06:52:06.182Z,14.35
2023-04-29T06:54:35.894Z,14.35
2023-04-29T06:57:03.632Z,13.73
2023-04-29T06:59:44.797Z,14.48
2023-04-29T07:02:11.839Z,16.48
2023-04-29T07:10:03.656Z,15.60
2023-04-29T07:12:35.701Z,14.90
2023-04-29T07:15:04.545Z,15.15
2023-04-29T07:17:45.749Z,14.18
2023-04-29T07:20:16.407Z,16.00
2023-04-29T07:30:42.756Z,15.23
2023-04-29T07:33:12.896Z,15.98
2023-04-29T07:35:46.768Z,16.30
2023-04-29T07:41:08.817Z,15.88
2023-04-29T07:43:36.942Z,15.75
2023-04-29T07:46:09.919Z,14.68
2023-04-29T07:48:42.600Z,15.82
2023-04-29T07:51:13.590Z,13.27
2023-04-29T07:53:47.412Z,14.18
2023-04-29T07:56:15.309Z,13.30
2023-04-29T08:01:39.888Z,13.07
2023-04-29T08:04:18.313Z,14.80
2023-04-29T08:06:45.739Z,13.93
2023-04-29T08:12:03.885Z,12.82
2023-04-29T08:19:58.561Z,14.15
2023-04-29T08:22:40.628Z,14.98
2023-04-29T08:27:50.739Z,14.38
2023-04-29T08:30:23.375Z,14.75
2023-04-29T08:35:38.163Z,15.00
2023-04-29T08:38:10.564Z,15.43
2023-04-29T08:40:47.126Z,15.25
2023-04-29T08:43:17.419Z,15.45
2023-04-29T08:45:46.174Z,16.25
2023-04-29T08:48:14.232Z,15.23
2023-04-29T08:50:42.871Z,18.48
2023-04-29T08:53:10.863Z,18.27
2023-04-29T08:55:54.679Z,19.63
2023-04-29T09:01:11.291Z,20.25
2023-04-29T09:03:46.701Z,20.67
2023-04-29T09:06:15.729Z,22.08
2023-04-29T09:08:44.556Z,17.42
2023-04-29T09:11:17.124Z,21.23
2023-04-29T09:13:43.650Z,20.58
2023-04-29T09:16:12.384Z,20.13
2023-04-29T09:18:46.234Z,18.63
2023-04-29T09:21:22.859Z,17.75
2023-04-29T09:23:53.160Z,16.35
2023-04-29T09:30:03.715Z,16.50
2023-04-29T09:32:39.329Z,17.52
2023-04-29T09:35:22.836Z,16.98
2023-04-29T09:37:49.780Z,15.35
2023-04-29T10:27:29.316Z,19.35
2023-04-29T10:29:59.397Z,20.77
2023-04-29T10:32:43.341Z,22.00
2023-04-29T10:35:25.937Z,20.08
2023-04-29T10:37:53.626Z,20.65
2023-04-29T10:40:28.858Z,20.92
2023-04-29T10:46:14.204Z,19.90
2023-04-29T10:48:41.961Z,19.75
2023-04-29T10:54:15.853Z,18.50
2023-04-29T10:56:50.509Z,18.15
2023-04-29T10:59:40.285Z,18.10
2023-04-29T11:02:14.162Z,20.63
2023-04-29T11:05:07.824Z,18.50
2023-04-29T11:07:34.669Z,17.92
2023-04-29T11:10:02.478Z,18.23
2023-04-29T11:12:40.555Z,17.48
2023-04-29T11:15:26.145Z,17.08
2023-04-29T11:20:59.071Z,16.30
2023-04-29T11:34:07.629Z,15.82
2023-04-29T16:14:06.961Z,5.45
2023-04-29T16:16:34.609Z,4.90
2023-04-29T16:24:43.632Z,5.28
2023-04-29T17:29:47.736Z,3.33
2023-04-29T17:32:23.105Z,2.92
2023-04-29T17:37:39.005Z,3.72
2023-04-29T17:45:31.690Z,3.58
2023-04-29T17:47:58.941Z,3.42
2023-04-29T17:50:26.161Z,4.28
2023-04-29T18:01:07.306Z,3.78
2023-04-29T18:03:34.710Z,3.65
2023-04-29T18:06:01.541Z,3.53
2023-04-29T18:11:16.281Z,3.53
2023-04-29T18:13:43.824Z,4.20
2023-04-29T18:16:10.429Z,3.45
2023-04-29T18:18:38.535Z,3.97
2023-04-29T18:21:16.327Z,3.35
2023-04-29T19:06:48.062Z,4.55
2023-04-29T19:09:17.812Z,4.50
2023-04-29T19:14:35.561Z,4.20
2023-04-29T19:17:05.391Z,4.43
2023-04-29T19:22:20.696Z,4.40
2023-04-29T19:24:49.574Z,3.72
2023-04-29T19:44:56.554Z,4.63
2023-04-29T19:47:29.562Z,4.38
2023-04-29T19:52:54.553Z,4.43
2023-04-29T19:58:05.961Z,4.78
2023-04-29T20:03:08.117Z,5.57
2023-04-29T20:05:36.735Z,5.85
2023-04-29T20:08:04.184Z,4.65
2023-04-29T20:10:31.644Z,4.55
2023-04-29T20:12:58.705Z,4.60
2023-04-29T20:15:25.581Z,5.97
2023-04-29T20:17:58.935Z,6.95
2023-04-29T20:20:33.417Z,5.72
2023-04-29T20:23:01.197Z,4.93
2023-04-29T20:25:32.866Z,5.10
2023-04-29T20:28:03.591Z,5.07
2023-04-29T20:34:02.194Z,4.55
2023-04-29T20:36:30.863Z,5.25
2023-04-29T20:39:04.044Z,4.60
2023-04-29T20:41:37.464Z,4.25
2023-04-29T20:44:12.657Z,4.40
2023-04-29T22:03:27.926Z,3.65
2023-04-29T22:05:53.924Z,4.30
2023-04-29T22:08:19.852Z,4.38
2023-04-29T22:10:45.822Z,4.47
2023-04-29T22:13:12.203Z,4.00
2023-04-29T22:15:38.266Z,3.83
2023-04-29T22:18:06.885Z,3.80
2023-04-29T22:20:32.791Z,3.13
2023-04-29T22:22:59.032Z,3.08
2023-04-29T22:25:24.904Z,3.92
2023-04-29T22:27:51.358Z,4.03
2023-04-29T22:30:17.512Z,3.40
2023-04-29T22:32:43.726Z,3.47
2023-04-29T22:35:09.667Z,4.32
2023-04-29T22:37:35.555Z,4.45
2023-04-29T22:40:01.511Z,3.90
2023-04-29T22:42:27.387Z,4.55
2023-04-29T22:44:53.270Z,4.82
2023-04-29T22:47:19.339Z,4.22
2023-04-29T22:49:45.786Z,5.25
2023-04-29T22:52:11.585Z,4.50
2023-04-29T22:54:37.400Z,5.10
2023-04-29T22:57:03.435Z,4.88
2023-04-29T22:59:29.452Z,4.90
2023-04-29T23:01:55.368Z,4.70
2023-04-29T23:04:22.702Z,4.70
2023-04-29T23:06:48.575Z,4.80
2023-04-29T23:09:14.767Z,4.55
2023-04-29T23:11:40.627Z,5.65
2023-04-29T23:14:07.040Z,4.13
2023-04-29T23:16:33.084Z,4.20
2023-04-29T23:18:58.985Z,4.57
2023-04-29T23:21:27.269Z,3.88
2023-04-29T23:23:53.543Z,3.90
2023-04-29T23:26:19.388Z,3.40
2023-04-29T23:28:45.250Z,3.08
2023-04-29T23:31:14.256Z,3.42
2023-04-29T23:33:40.121Z,3.40
2023-04-29T23:36:05.968Z,2.70
2023-04-29T23:38:31.760Z,2.95
2023-04-29T23:40:57.578Z,2.92
2023-04-29T23:43:23.332Z,2.35
2023-04-29T23:45:49.148Z,4.00
2023-04-29T23:48:15.664Z,2.95
2023-04-29T23:50:41.471Z,2.53
2023-04-29T23:53:07.301Z,2.42
2023-04-29T23:55:34.140Z,2.65
2023-04-29T23:58:00.128Z,3.03
